Time;durP1;ratioP1;P1;durP2;ratioP2;P2;SDS_P1;SDS_P2;PMS_P1;PMS_P2;Temp;Humidity;BMP_temperature;BMP_pressure;BME280_temperature;BME280_humidity;BME280_pressure;Samples;Min_cycle;Max_cycle;Signal;HPM_P1;HPM_P2
2022/10/28 00:02:11;;;;;;;4.87;3.40;;;;;;;;;;5021406;28;20258;-51
2022/10/28 00:04:36;;;;;;;4.43;3.47;;;;;;;;;;5022083;28;20191;-53
2022/10/28 00:07:01;;;;;;;4.20;3.60;;;;;;;;;;5020217;28;20714;-54
2022/10/28 00:09:26;;;;;;;6.47;3.50;;;;;;;;;;5022808;28;20183;-53
2022/10/28 00:11:52;;;;;;;4.70;3.90;;;;;;;;;;5021086;28;20282;-51
2022/10/28 00:14:17;;;;;;;4.57;3.40;;;;;;;;;;5019940;28;20245;-51
2022/10/28 00:16:42;;;;;;;4.60;3.67;;;;;;;;;;5018771;28;20180;-54
2022/10/28 00:19:10;;;;;;;6.53;3.60;;;;;;;;;;5019360;28;20932;-56
2022/10/28 00:21:37;;;;;;;4.07;3.20;;;;;;;;;;5021883;28;20671;-55
2022/10/28 00:24:03;;;;;;;5.07;3.43;;;;;;;;;;5024791;28;20544;-55
2022/10/28 00:26:30;;;;;;;3.73;3.17;;;;;;;;;;5021594;28;20216;-52
2022/10/28 00:29:01;;;;;;;3.33;3.03;;;;;;;;;;5019628;28;20725;-51
2022/10/28 00:31:28;;;;;;;4.80;3.70;;;;;;;;;;5022928;28;20713;-50
2022/10/28 00:33:54;;;;;;;4.40;3.40;;;;;;;;;;5021569;28;20203;-50
2022/10/28 00:36:25;;;;;;;5.70;3.93;;;;;;;;;;5019887;28;20184;-49
2022/10/28 00:38:51;;;;;;;5.17;3.73;;;;;;;;;;5019338;28;20268;-51
2022/10/28 00:41:21;;;;;;;5.30;3.50;;;;;;;;;;5021723;28;20183;-49
2022/10/28 00:43:53;;;;;;;5.70;3.40;;;;;;;;;;5020157;28;20580;-50
2022/10/28 00:46:29;;;;;;;5.47;3.40;;;;;;;;;;5018939;28;20188;-52
2022/10/28 00:49:02;;;;;;;4.13;3.37;;;;;;;;;;5020536;28;20175;-49
2022/10/28 00:51:28;;;;;;;4.10;3.23;;;;;;;;;;5021104;28;20257;-49
2022/10/28 00:53:55;;;;;;;4.50;3.60;;;;;;;;;;5019375;28;20458;-50
2022/10/28 00:56:22;;;;;;;4.80;3.30;;;;;;;;;;5021184;28;20700;-53
2022/10/28 00:58:47;;;;;;;4.67;3.43;;;;;;;;;;5020604;28;20246;-50
2022/10/28 01:01:13;;;;;;;4.73;3.50;;;;;;;;;;5019682;28;20192;-51
2022/10/28 01:03:38;;;;;;;5.27;3.67;;;;;;;;;;5020326;28;20196;-51
2022/10/28 01:06:03;;;;;;;4.27;3.53;;;;;;;;;;5018879;28;20175;-49
2022/10/28 01:08:29;;;;;;;6.00;3.50;;;;;;;;;;5019821;28;20265;-51
2022/10/28 01:11:09;;;;;;;4.40;3.30;;;;;;;;;;5020845;28;20261;-49
2022/10/28 01:13:46;;;;;;;4.27;3.40;;;;;;;;;;5018943;28;20207;-51
2022/10/28 01:16:33;;;;;;;4.53;3.30;;;;;;;;;;5018604;28;20190;-53
2022/10/28 01:19:26;;;;;;;4.97;3.50;;;;;;;;;;5018062;28;20246;-51
2022/10/28 01:22:24;;;;;;;5.10;3.57;;;;;;;;;;5018983;28;20183;-54
2022/10/28 01:25:25;;;;;;;4.70;3.20;;;;;;;;;;5021387;28;20294;-50
2022/10/28 01:28:00;;;;;;;5.33;3.50;;;;;;;;;;5018691;28;20182;-52
2022/10/28 01:30:40;;;;;;;4.57;3.30;;;;;;;;;;5017089;28;20179;-52
2022/10/28 01:33:17;;;;;;;4.00;3.33;;;;;;;;;;5035457;28;20199;-53
2022/10/28 01:35:52;;;;;;;5.13;3.40;;;;;;;;;;5021441;28;20184;-54
2022/10/28 01:38:31;;;;;;;4.50;3.30;;;;;;;;;;5020067;28;20202;-53
2022/10/28 01:41:09;;;;;;;4.23;3.20;;;;;;;;;;5020836;28;20279;-52
2022/10/28 01:43:57;;;;;;;4.30;3.43;;;;;;;;;;5026493;28;20209;-51
2022/10/28 01:46:27;;;;;;;4.23;3.40;;;;;;;;;;5015925;28;20517;-52
2022/10/28 01:49:09;;;;;;;4.60;3.23;;;;;;;;;;5020441;28;20176;-52
2022/10/28 01:51:39;;;;;;;4.50;3.30;;;;;;;;;;5025668;28;20198;-52
2022/10/28 01:54:06;;;;;;;4.60;3.70;;;;;;;;;;5020880;28;20233;-50
2022/10/28 01:56:36;;;;;;;5.27;3.47;;;;;;;;;;5040511;28;20187;-49
2022/10/28 01:59:04;;;;;;;4.50;3.23;;;;;;;;;;5021311;28;20571;-53
2022/10/28 02:01:30;;;;;;;4.23;3.20;;;;;;;;;;5019948;28;20590;-51
2022/10/28 02:03:56;;;;;;;5.33;3.37;;;;;;;;;;5018930;28;20262;-51
2022/10/28 02:06:23;;;;;;;4.63;3.40;;;;;;;;;;5019523;28;20187;-50
2022/10/28 02:09:14;;;;;;;4.13;3.13;;;;;;;;;;5014668;28;20200;-50
2022/10/28 02:12:10;;;;;;;5.27;3.40;;;;;;;;;;5018590;28;20262;-49
2022/10/28 02:14:47;;;;;;;4.80;3.50;;;;;;;;;;5018145;28;20199;-53
2022/10/28 02:17:21;;;;;;;4.57;3.33;;;;;;;;;;5020832;28;20534;-51
2022/10/28 02:20:05;;;;;;;4.03;3.47;;;;;;;;;;5014658;28;20226;-50
2022/10/28 02:22:46;;;;;;;4.20;3.23;;;;;;;;;;5019294;28;20249;-52
2022/10/28 02:25:22;;;;;;;4.43;3.37;;;;;;;;;;5018590;28;20188;-52
2022/10/28 02:27:55;;;;;;;4.50;3.47;;;;;;;;;;5020066;28;20179;-51
2022/10/28 02:30:23;;;;;;;4.53;3.10;;;;;;;;;;5018496;28;20568;-51
2022/10/28 02:32:55;;;;;;;4.30;3.30;;;;;;;;;;5017071;28;20648;-51
2022/10/28 02:35:31;;;;;;;4.40;3.33;;;;;;;;;;5018193;28;20179;-53
2022/10/28 02:37:57;;;;;;;4.37;3.27;;;;;;;;;;5014508;28;20972;-50
2022/10/28 02:40:25;;;;;;;4.67;3.03;;;;;;;;;;5018907;28;20532;-52
2022/10/28 02:42:54;;;;;;;4.10;3.33;;;;;;;;;;5019290;28;20261;-51
2022/10/28 02:45:29;;;;;;;3.63;3.10;;;;;;;;;;5019964;28;20176;-49
2022/10/28 02:47:57;;;;;;;3.80;3.13;;;;;;;;;;5017864;28;20171;-50
2022/10/28 02:50:31;;;;;;;4.90;3.10;;;;;;;;;;5021054;28;20211;-52
2022/10/28 02:52:59;;;;;;;4.17;3.30;;;;;;;;;;5020613;28;20214;-49
2022/10/28 02:55:29;;;;;;;5.33;3.60;;;;;;;;;;5021219;28;20200;-54
2022/10/28 02:57:55;;;;;;;4.40;3.50;;;;;;;;;;5018461;28;20211;-54
2022/10/28 03:00:23;;;;;;;4.43;3.53;;;;;;;;;;5017906;28;20274;-53
2022/10/28 03:02:49;;;;;;;5.20;3.10;;;;;;;;;;5014449;28;20280;-51
2022/10/28 03:05:14;;;;;;;4.67;3.13;;;;;;;;;;5017059;28;20825;-52
2022/10/28 03:07:40;;;;;;;4.50;3.63;;;;;;;;;;5021450;28;20182;-52
2022/10/28 03:10:05;;;;;;;4.83;3.20;;;;;;;;;;5014579;28;20267;-51
2022/10/28 03:12:31;;;;;;;5.07;3.40;;;;;;;;;;5021404;28;20302;-53
2022/10/28 03:14:56;;;;;;;4.23;3.40;;;;;;;;;;5022289;28;20766;-56
2022/10/28 03:17:21;;;;;;;4.90;3.27;;;;;;;;;;5022885;28;20199;-49
2022/10/28 03:19:46;;;;;;;4.40;3.10;;;;;;;;;;5021068;28;20218;-50
2022/10/28 03:22:11;;;;;;;3.93;3.37;;;;;;;;;;5023153;28;20600;-51
2022/10/28 03:24:37;;;;;;;3.87;3.13;;;;;;;;;;5022322;28;20224;-55
2022/10/28 03:27:02;;;;;;;5.27;3.27;;;;;;;;;;5019404;28;20636;-54
2022/10/28 03:29:27;;;;;;;3.63;3.23;;;;;;;;;;5018104;28;20181;-51
2022/10/28 03:31:52;;;;;;;3.90;3.20;;;;;;;;;;5019153;28;20192;-51
2022/10/28 03:34:18;;;;;;;4.40;2.90;;;;;;;;;;5022412;28;20203;-51
2022/10/28 03:36:43;;;;;;;7.17;3.33;;;;;;;;;;5018654;28;20192;-51
2022/10/28 03:39:08;;;;;;;4.63;3.40;;;;;;;;;;5022610;28;20195;-50
2022/10/28 03:41:34;;;;;;;4.27;3.53;;;;;;;;;;5018338;28;20272;-54
2022/10/28 03:43:59;;;;;;;4.80;3.20;;;;;;;;;;5019055;28;20299;-52
2022/10/28 03:46:24;;;;;;;4.27;3.20;;;;;;;;;;5021346;28;20218;-49
2022/10/28 03:48:49;;;;;;;4.10;3.33;;;;;;;;;;5019799;28;20171;-52
2022/10/28 03:51:15;;;;;;;4.17;3.03;;;;;;;;;;5021688;28;20186;-50
2022/10/28 03:53:40;;;;;;;3.83;3.00;;;;;;;;;;5020511;28;20202;-52
2022/10/28 03:56:06;;;;;;;4.67;3.23;;;;;;;;;;5021365;28;20576;-51
2022/10/28 03:58:31;;;;;;;4.30;3.10;;;;;;;;;;5023359;28;20207;-53
2022/10/28 04:00:56;;;;;;;3.83;3.10;;;;;;;;;;5015937;28;20675;-51
2022/10/28 04:03:23;;;;;;;5.43;3.10;;;;;;;;;;5018661;28;20203;-53
2022/10/28 04:05:48;;;;;;;5.97;3.20;;;;;;;;;;5017470;28;20180;-49
2022/10/28 04:08:14;;;;;;;4.10;3.13;;;;;;;;;;5024242;28;20433;-53
2022/10/28 04:10:40;;;;;;;4.50;3.13;;;;;;;;;;5018738;28;20179;-52
2022/10/28 04:13:05;;;;;;;4.10;3.30;;;;;;;;;;5017534;28;20266;-49
2022/10/28 04:15:31;;;;;;;4.17;3.13;;;;;;;;;;5017552;28;20187;-52
2022/10/28 04:17:57;;;;;;;4.40;3.23;;;;;;;;;;5017372;28;20210;-53
2022/10/28 04:20:22;;;;;;;4.73;3.37;;;;;;;;;;5018875;28;20218;-53
2022/10/28 04:22:47;;;;;;;4.50;3.17;;;;;;;;;;5016763;28;20277;-52
2022/10/28 04:25:13;;;;;;;4.07;3.07;;;;;;;;;;5015670;28;20183;-53
2022/10/28 04:27:38;;;;;;;3.80;3.10;;;;;;;;;;5014994;28;20183;-49
2022/10/28 04:30:04;;;;;;;3.70;3.20;;;;;;;;;;5015181;28;20182;-50
2022/10/28 04:32:29;;;;;;;4.10;3.00;;;;;;;;;;5020085;28;20833;-53
2022/10/28 04:34:55;;;;;;;3.87;3.13;;;;;;;;;;5023483;28;20637;-53
2022/10/28 04:37:20;;;;;;;3.77;3.00;;;;;;;;;;5021904;28;20743;-54
2022/10/28 04:39:45;;;;;;;3.83;3.30;;;;;;;;;;5017863;28;20203;-51
2022/10/28 04:42:10;;;;;;;4.37;3.30;;;;;;;;;;5012802;28;20246;-49
2022/10/28 04:44:36;;;;;;;4.10;3.00;;;;;;;;;;5024742;28;20206;-51
2022/10/28 04:47:01;;;;;;;3.57;2.90;;;;;;;;;;5023890;28;20680;-53
2022/10/28 04:49:26;;;;;;;3.73;3.00;;;;;;;;;;5022984;28;20179;-53
2022/10/28 04:51:51;;;;;;;4.80;3.00;;;;;;;;;;5027100;28;20237;-54
2022/10/28 04:54:17;;;;;;;3.73;3.00;;;;;;;;;;5024909;28;20212;-49
2022/10/28 04:56:42;;;;;;;4.17;3.27;;;;;;;;;;5021519;28;20964;-50
2022/10/28 04:59:07;;;;;;;4.27;3.13;;;;;;;;;;5013639;28;20583;-55
2022/10/28 05:01:33;;;;;;;4.20;3.03;;;;;;;;;;5022809;28;20207;-53
2022/10/28 05:03:58;;;;;;;4.27;3.30;;;;;;;;;;5019227;28;20707;-55
2022/10/28 05:06:23;;;;;;;4.40;3.10;;;;;;;;;;5020828;28;20529;-50
2022/10/28 05:08:48;;;;;;;4.40;3.10;;;;;;;;;;5018227;28;20784;-52
2022/10/28 05:11:14;;;;;;;3.83;3.23;;;;;;;;;;5020322;28;20179;-51
2022/10/28 05:13:39;;;;;;;3.40;2.90;;;;;;;;;;5018904;28;20691;-54
2022/10/28 05:16:05;;;;;;;4.13;3.20;;;;;;;;;;5019623;28;20561;-54
2022/10/28 05:18:30;;;;;;;4.03;3.23;;;;;;;;;;5018931;28;20679;-61
2022/10/28 05:20:55;;;;;;;6.47;3.70;;;;;;;;;;5012890;28;20840;-60
2022/10/28 05:23:21;;;;;;;13.70;4.73;;;;;;;;;;5006252;28;20648;-63
2022/10/28 05:25:47;;;;;;;12.33;5.50;;;;;;;;;;4992593;28;21216;-59
2022/10/28 05:28:12;;;;;;;9.27;5.63;;;;;;;;;;5017766;28;20184;-60
2022/10/28 05:30:37;;;;;;;10.40;5.53;;;;;;;;;;5020497;28;20453;-61
2022/10/28 05:33:03;;;;;;;13.03;6.00;;;;;;;;;;5020439;28;20200;-60
2022/10/28 05:35:29;;;;;;;12.60;5.90;;;;;;;;;;5015928;28;20188;-55
2022/10/28 05:37:55;;;;;;;11.63;5.90;;;;;;;;;;5012969;28;20257;-54
2022/10/28 05:40:20;;;;;;;11.20;6.10;;;;;;;;;;5020176;28;20380;-55
2022/10/28 05:42:45;;;;;;;9.73;5.80;;;;;;;;;;5016950;28;20214;-51
2022/10/28 05:45:11;;;;;;;9.90;5.50;;;;;;;;;;5018255;28;20189;-52
2022/10/28 05:47:41;;;;;;;10.00;4.90;;;;;;;;;;5018923;28;20267;-56
2022/10/28 05:50:07;;;;;;;9.57;5.57;;;;;;;;;;5015687;28;20180;-53
2022/10/28 05:52:32;;;;;;;8.40;5.27;;;;;;;;;;5018680;28;20175;-54
2022/10/28 05:54:57;;;;;;;8.10;5.10;;;;;;;;;;5011448;28;20184;-57
2022/10/28 05:57:22;;;;;;;8.77;5.07;;;;;;;;;;5015244;28;20849;-64
2022/10/28 05:59:47;;;;;;;8.10;4.50;;;;;;;;;;5002591;28;20235;-62
2022/10/28 06:02:13;;;;;;;9.13;4.77;;;;;;;;;;4997461;28;20187;-61
2022/10/28 06:04:39;;;;;;;8.70;4.80;;;;;;;;;;4999715;28;20215;-62
2022/10/28 06:07:05;;;;;;;12.43;4.60;;;;;;;;;;5000121;28;20177;-63
2022/10/28 06:09:30;;;;;;;10.87;5.10;;;;;;;;;;4999648;28;20654;-61
2022/10/28 06:11:55;;;;;;;8.27;5.03;;;;;;;;;;4997111;28;20199;-61
2022/10/28 06:14:20;;;;;;;8.53;4.53;;;;;;;;;;4999738;28;20231;-54
2022/10/28 06:16:46;;;;;;;8.20;4.63;;;;;;;;;;4996167;28;20189;-55
2022/10/28 06:19:11;;;;;;;10.43;4.80;;;;;;;;;;4999335;28;20243;-57
2022/10/28 06:21:36;;;;;;;8.75;4.60;;;;;;;;;;4994088;28;20182;-60
2022/10/28 06:24:01;;;;;;;5.87;4.47;;;;;;;;;;5013549;28;20718;-59
2022/10/28 06:26:27;;;;;;;10.60;4.43;;;;;;;;;;4993738;28;20188;-55
2022/10/28 06:28:52;;;;;;;7.95;4.65;;;;;;;;;;4996478;28;20176;-57
2022/10/28 06:31:17;;;;;;;11.63;4.57;;;;;;;;;;4998695;28;20234;-54
2022/10/28 06:33:42;;;;;;;6.43;4.27;;;;;;;;;;5005187;28;20200;-57
2022/10/28 06:36:08;;;;;;;7.13;4.05;;;;;;;;;;5003580;28;20529;-53
2022/10/28 06:38:33;;;;;;;8.07;4.53;;;;;;;;;;5002784;28;20587;-55
2022/10/28 06:40:59;;;;;;;6.78;4.47;;;;;;;;;;4998222;28;20189;-58
2022/10/28 06:43:24;;;;;;;9.68;4.97;;;;;;;;;;5000079;28;20260;-58
2022/10/28 06:45:54;;;;;;;7.43;4.43;;;;;;;;;;5003388;28;20652;-57
2022/10/28 06:48:19;;;;;;;8.20;4.10;;;;;;;;;;5004928;28;20180;-57
2022/10/28 06:50:44;;;;;;;6.13;3.90;;;;;;;;;;5003250;28;20544;-51
2022/10/28 06:53:09;;;;;;;8.18;4.07;;;;;;;;;;5009269;28;20263;-56
2022/10/28 06:55:35;;;;;;;9.25;4.75;;;;;;;;;;5004433;28;20282;-57
2022/10/28 06:58:01;;;;;;;6.43;4.32;;;;;;;;;;5001420;28;20240;-56
2022/10/28 07:00:27;;;;;;;6.90;3.90;;;;;;;;;;5003761;28;20644;-56
2022/10/28 07:02:52;;;;;;;7.28;4.10;;;;;;;;;;5026381;28;20208;-55
2022/10/28 07:05:18;;;;;;;5.75;4.15;;;;;;;;;;5011731;28;20184;-54
2022/10/28 07:07:43;;;;;;;6.70;4.20;;;;;;;;;;5011624;28;20183;-57
2022/10/28 07:10:08;;;;;;;6.13;3.95;;;;;;;;;;5011373;28;20658;-55
2022/10/28 07:12:33;;;;;;;5.15;4.15;;;;;;;;;;5007905;28;20534;-59
2022/10/28 07:14:59;;;;;;;6.65;4.00;;;;;;;;;;5003814;28;20546;-58
2022/10/28 07:17:24;;;;;;;6.28;4.00;;;;;;;;;;5000151;28;20182;-63
2022/10/28 07:19:49;;;;;;;10.57;5.05;;;;;;;;;;5024388;28;20581;-56
2022/10/28 07:22:14;;;;;;;10.38;6.47;;;;;;;;;;5011571;28;20242;-57
2022/10/28 07:24:40;;;;;;;13.95;6.43;;;;;;;;;;5007442;28;20209;-59
2022/10/28 07:27:07;;;;;;;11.95;5.85;;;;;;;;;;5010520;28;20500;-50
2022/10/28 07:29:32;;;;;;;13.77;6.20;;;;;;;;;;5011561;28;20194;-54
2022/10/28 07:31:57;;;;;;;13.87;6.77;;;;;;;;;;5011245;28;20247;-54
2022/10/28 07:34:22;;;;;;;10.93;5.00;;;;;;;;;;5009756;28;20208;-55
2022/10/28 07:36:49;;;;;;;13.83;5.30;;;;;;;;;;5011068;28;20183;-53
2022/10/28 07:39:15;;;;;;;12.38;5.22;;;;;;;;;;5011810;28;20219;-51
2022/10/28 07:41:40;;;;;;;11.50;4.93;;;;;;;;;;5011328;28;20219;-55
2022/10/28 07:44:06;;;;;;;14.02;4.95;;;;;;;;;;5001941;28;20271;-50
2022/10/28 07:46:32;;;;;;;8.48;4.18;;;;;;;;;;5001679;28;20242;-43
2022/10/28 07:48:57;;;;;;;16.45;4.85;;;;;;;;;;5006437;28;20184;-46
2022/10/28 07:51:22;;;;;;;13.30;4.95;;;;;;;;;;5007386;28;20211;-44
2022/10/28 07:53:47;;;;;;;11.65;4.57;;;;;;;;;;5006892;28;20206;-47
2022/10/28 07:56:13;;;;;;;13.00;4.50;;;;;;;;;;5004394;28;20223;-46
2022/10/28 07:58:39;;;;;;;10.85;4.60;;;;;;;;;;5006196;28;20204;-46
2022/10/28 08:01:07;;;;;;;9.18;4.35;;;;;;;;;;5007723;28;20179;-47
2022/10/28 08:03:33;;;;;;;15.02;4.55;;;;;;;;;;5007310;28;20208;-48
2022/10/28 08:06:00;;;;;;;8.05;4.50;;;;;;;;;;5000776;28;20169;-49
2022/10/28 08:08:25;;;;;;;11.25;4.05;;;;;;;;;;5000844;28;20184;-46
2022/10/28 08:10:51;;;;;;;13.50;4.03;;;;;;;;;;5001632;28;20180;-47
2022/10/28 08:13:16;;;;;;;11.77;4.30;;;;;;;;;;5005767;28;20200;-45
2022/10/28 08:15:41;;;;;;;8.65;4.55;;;;;;;;;;5005795;28;20188;-47
2022/10/28 08:18:06;;;;;;;9.18;3.70;;;;;;;;;;5007261;28;20688;-46
2022/10/28 08:20:31;;;;;;;8.02;3.90;;;;;;;;;;5010083;28;20667;-48
2022/10/28 08:22:57;;;;;;;6.82;3.65;;;;;;;;;;5007772;28;20565;-48
2022/10/28 08:25:22;;;;;;;9.38;3.85;;;;;;;;;;5005900;28;20543;-45
2022/10/28 08:27:47;;;;;;;8.98;4.22;;;;;;;;;;5005654;28;20633;-47
2022/10/28 08:30:13;;;;;;;10.40;4.40;;;;;;;;;;5010037;28;20831;-47
2022/10/28 08:32:38;;;;;;;9.43;4.57;;;;;;;;;;5003346;28;20184;-47
2022/10/28 08:35:04;;;;;;;9.73;4.03;;;;;;;;;;5002592;28;20315;-47
2022/10/28 08:37:29;;;;;;;7.57;3.75;;;;;;;;;;5004684;28;20202;-47
2022/10/28 08:39:54;;;;;;;12.07;4.38;;;;;;;;;;5011949;28;20220;-46
2022/10/28 08:42:44;;;;;;;7.28;4.07;;;;;;;;;;5008146;28;20176;-47
2022/10/28 08:45:21;;;;;;;11.75;4.18;;;;;;;;;;5004609;28;20177;-52
2022/10/28 08:48:13;;;;;;;5.43;3.97;;;;;;;;;;5008479;28;20627;-51
2022/10/28 08:50:52;;;;;;;5.70;4.03;;;;;;;;;;5003407;28;20172;-52
2022/10/28 08:53:26;;;;;;;6.65;3.80;;;;;;;;;;5004256;28;20222;-51
2022/10/28 08:55:54;;;;;;;5.53;3.58;;;;;;;;;;5003244;28;20184;-49
2022/10/28 08:58:19;;;;;;;6.28;3.75;;;;;;;;;;5027669;28;20204;-47
2022/10/28 09:00:50;;;;;;;7.72;4.40;;;;;;;;;;4998794;28;20207;-47
2022/10/28 09:03:23;;;;;;;8.82;3.70;;;;;;;;;;5005786;28;20204;-47
2022/10/28 09:05:55;;;;;;;5.65;3.60;;;;;;;;;;5001745;28;20176;-55
2022/10/28 09:08:27;;;;;;;5.80;3.90;;;;;;;;;;5006769;28;20176;-47
2022/10/28 09:11:02;;;;;;;5.32;3.40;;;;;;;;;;5000921;28;20184;-53
2022/10/28 09:13:32;;;;;;;7.13;4.10;;;;;;;;;;5009263;28;20282;-52
2022/10/28 09:16:26;;;;;;;5.25;3.65;;;;;;;;;;5007174;28;20211;-52
2022/10/28 09:18:54;;;;;;;6.22;3.80;;;;;;;;;;4997841;28;20686;-55
2022/10/28 09:21:32;;;;;;;8.45;3.55;;;;;;;;;;5006797;28;20181;-51
2022/10/28 09:23:59;;;;;;;5.88;3.92;;;;;;;;;;5005138;28;20865;-50
2022/10/28 09:26:32;;;;;;;6.65;3.90;;;;;;;;;;5003483;28;20295;-47
2022/10/28 09:29:02;;;;;;;6.30;3.40;;;;;;;;;;5004103;28;20184;-50
2022/10/28 09:31:37;;;;;;;6.10;3.45;;;;;;;;;;4998670;28;20694;-48
2022/10/28 09:34:32;;;;;;;5.85;3.63;;;;;;;;;;5001523;28;20767;-58
2022/10/28 09:37:05;;;;;;;6.10;3.60;;;;;;;;;;5004146;28;20179;-59
2022/10/28 09:39:42;;;;;;;8.73;3.90;;;;;;;;;;5000473;28;20199;-48
2022/10/28 09:42:09;;;;;;;7.32;4.18;;;;;;;;;;5005328;28;20187;-49
2022/10/28 09:44:41;;;;;;;6.45;3.75;;;;;;;;;;5005024;28;20196;-50
2022/10/28 09:47:59;;;;;;;9.82;3.70;;;;;;;;;;5012576;28;20547;-50
2022/10/28 09:50:27;;;;;;;5.38;3.40;;;;;;;;;;5003821;28;20808;-50
2022/10/28 09:53:20;;;;;;;6.45;3.78;;;;;;;;;;5031854;28;20290;-50
2022/10/28 09:55:45;;;;;;;7.13;3.65;;;;;;;;;;5003679;28;20216;-48
2022/10/28 09:58:11;;;;;;;9.90;3.67;;;;;;;;;;5012507;28;20246;-48
2022/10/28 10:00:37;;;;;;;5.80;3.92;;;;;;;;;;5005691;28;20181;-48
2022/10/28 10:03:02;;;;;;;5.13;3.35;;;;;;;;;;4999863;28;20402;-52
2022/10/28 10:05:29;;;;;;;7.10;4.10;;;;;;;;;;5006161;28;20235;-55
2022/10/28 10:08:14;;;;;;;6.18;3.30;;;;;;;;;;5002130;28;20262;-53
2022/10/28 10:10:48;;;;;;;6.78;3.40;;;;;;;;;;4999679;28;20670;-51
2022/10/28 10:13:16;;;;;;;9.43;3.90;;;;;;;;;;5003915;28;20230;-54
2022/10/28 10:15:45;;;;;;;6.25;3.80;;;;;;;;;;4999675;28;20219;-54
2022/10/28 10:18:29;;;;;;;5.68;3.70;;;;;;;;;;5001419;28;20226;-53
2022/10/28 10:20:57;;;;;;;6.30;4.00;;;;;;;;;;4998323;28;20177;-55
2022/10/28 10:23:33;;;;;;;8.70;3.90;;;;;;;;;;5007122;28;20210;-51
2022/10/28 10:26:00;;;;;;;8.68;3.38;;;;;;;;;;5000090;28;20246;-54
2022/10/28 10:28:26;;;;;;;9.23;3.65;;;;;;;;;;5000023;28;20186;-47
2022/10/28 10:30:57;;;;;;;6.28;3.75;;;;;;;;;;5000686;28;20263;-53
2022/10/28 10:33:37;;;;;;;9.30;3.97;;;;;;;;;;5010310;28;20192;-48
2022/10/28 10:36:11;;;;;;;7.00;3.85;;;;;;;;;;5001796;28;20297;-47
2022/10/28 10:38:38;;;;;;;10.60;4.20;;;;;;;;;;5001679;28;20245;-47
2022/10/28 10:41:03;;;;;;;4.68;3.25;;;;;;;;;;5004120;28;20628;-54
2022/10/28 10:43:30;;;;;;;6.13;3.67;;;;;;;;;;4995693;28;20292;-47
2022/10/28 10:46:01;;;;;;;5.65;3.30;;;;;;;;;;4999286;28;20216;-48
2022/10/28 10:48:28;;;;;;;6.15;3.75;;;;;;;;;;4996711;28;20180;-47
2022/10/28 10:50:53;;;;;;;6.50;3.53;;;;;;;;;;4997638;28;20180;-47
2022/10/28 10:53:30;;;;;;;5.43;3.33;;;;;;;;;;5002704;28;20200;-48
2022/10/28 10:56:03;;;;;;;4.97;3.53;;;;;;;;;;4999851;28;20231;-47
2022/10/28 10:58:31;;;;;;;7.45;3.75;;;;;;;;;;5000091;28;20205;-48
2022/10/28 11:00:58;;;;;;;5.82;3.50;;;;;;;;;;5002673;28;20177;-51
2022/10/28 11:03:27;;;;;;;5.32;3.63;;;;;;;;;;5008846;28;20246;-47
2022/10/28 11:05:55;;;;;;;5.13;2.90;;;;;;;;;;5009533;28;20172;-47
2022/10/28 11:08:36;;;;;;;6.30;3.50;;;;;;;;;;5009600;28;20169;-47
2022/10/28 11:11:07;;;;;;;4.88;3.28;;;;;;;;;;5007594;28;20188;-48
2022/10/28 11:13:34;;;;;;;6.25;3.40;;;;;;;;;;5004066;28;20205;-47
2022/10/28 11:16:04;;;;;;;4.75;3.10;;;;;;;;;;5006545;28;20176;-48
2022/10/28 11:18:42;;;;;;;7.95;3.45;;;;;;;;;;5007326;28;20287;-49
2022/10/28 11:21:26;;;;;;;3.85;2.78;;;;;;;;;;5011976;28;20184;-48
2022/10/28 11:24:22;;;;;;;5.38;3.15;;;;;;;;;;4999178;28;20749;-49
2022/10/28 11:27:12;;;;;;;5.68;3.22;;;;;;;;;;5006059;28;20185;-47
2022/10/28 11:29:37;;;;;;;5.93;3.28;;;;;;;;;;5003268;28;20184;-47
2022/10/28 11:32:21;;;;;;;5.35;3.13;;;;;;;;;;5011351;28;20199;-46
2022/10/28 11:35:18;;;;;;;4.90;2.95;;;;;;;;;;5006954;28;20307;-46
2022/10/28 11:37:56;;;;;;;4.95;3.20;;;;;;;;;;5008311;28;20676;-46
2022/10/28 11:40:55;;;;;;;4.80;2.88;;;;;;;;;;5014994;28;20180;-46
2022/10/28 11:43:37;;;;;;;6.97;3.22;;;;;;;;;;5000542;28;20607;-46
2022/10/28 11:46:12;;;;;;;4.90;3.25;;;;;;;;;;5005574;28;20211;-47
2022/10/28 11:48:56;;;;;;;4.05;3.20;;;;;;;;;;5017880;28;20223;-48
2022/10/28 11:51:33;;;;;;;4.60;3.05;;;;;;;;;;5006414;28;20192;-47
2022/10/28 11:54:04;;;;;;;8.40;3.15;;;;;;;;;;5010699;28;20274;-46
2022/10/28 11:56:34;;;;;;;7.35;3.15;;;;;;;;;;5009773;28;20188;-46
2022/10/28 11:59:28;;;;;;;4.30;3.17;;;;;;;;;;5008144;28;20275;-46
2022/10/28 12:01:59;;;;;;;4.40;3.05;;;;;;;;;;5006946;28;20331;-48
2022/10/28 12:04:45;;;;;;;4.55;3.00;;;;;;;;;;5004467;28;20703;-59
2022/10/28 12:07:38;;;;;;;7.38;3.63;;;;;;;;;;5010968;28;20184;-61
2022/10/28 12:10:26;;;;;;;7.15;3.30;;;;;;;;;;5005299;28;20180;-58
2022/10/28 12:13:02;;;;;;;7.38;3.78;;;;;;;;;;5001579;28;20189;-60
2022/10/28 12:15:49;;;;;;;7.95;3.40;;;;;;;;;;5001196;28;20652;-57
2022/10/28 12:18:24;;;;;;;7.80;3.63;;;;;;;;;;5003262;28;20208;-56
2022/10/28 12:21:08;;;;;;;6.30;3.50;;;;;;;;;;5021777;28;20255;-56
2022/10/28 12:23:36;;;;;;;7.47;3.85;;;;;;;;;;5006529;28;20200;-58
2022/10/28 12:26:05;;;;;;;7.30;3.40;;;;;;;;;;5005715;28;20204;-56
2022/10/28 12:28:41;;;;;;;5.68;3.55;;;;;;;;;;5007696;28;20184;-56
2022/10/28 12:31:14;;;;;;;8.07;3.63;;;;;;;;;;5003560;28;20172;-56
2022/10/28 12:33:43;;;;;;;8.00;4.18;;;;;;;;;;4998604;28;20580;-56
2022/10/28 12:36:08;;;;;;;7.78;3.47;;;;;;;;;;4982372;28;20269;-54
2022/10/28 12:39:00;;;;;;;5.43;3.20;;;;;;;;;;4997574;28;20295;-59
2022/10/28 12:41:29;;;;;;;5.50;3.33;;;;;;;;;;4996093;28;20769;-56
2022/10/28 12:44:00;;;;;;;7.20;4.00;;;;;;;;;;4997736;28;20200;-56
2022/10/28 12:46:47;;;;;;;8.07;3.25;;;;;;;;;;5001237;28;20215;-61
2022/10/28 12:49:34;;;;;;;7.22;3.30;;;;;;;;;;5003660;28;20173;-61
2022/10/28 12:52:07;;;;;;;7.63;3.28;;;;;;;;;;5005700;28;20302;-55
2022/10/28 12:54:42;;;;;;;6.13;3.75;;;;;;;;;;5011555;28;20212;-60
2022/10/28 12:57:13;;;;;;;4.40;3.10;;;;;;;;;;5006657;28;20179;-47
2022/10/28 12:59:42;;;;;;;7.90;3.30;;;;;;;;;;5009095;28;20206;-51
2022/10/28 13:02:22;;;;;;;6.30;3.60;;;;;;;;;;5002039;28;20234;-49
2022/10/28 13:04:48;;;;;;;8.20;3.45;;;;;;;;;;5005206;28;20200;-53
2022/10/28 13:07:22;;;;;;;6.60;3.40;;;;;;;;;;4999262;28;20229;-54
2022/10/28 13:10:12;;;;;;;4.72;3.42;;;;;;;;;;5002537;28;20238;-54
2022/10/28 13:13:13;;;;;;;6.43;3.40;;;;;;;;;;5001844;28;20180;-48
2022/10/28 13:15:44;;;;;;;5.78;3.58;;;;;;;;;;5010275;28;20652;-46
2022/10/28 13:18:36;;;;;;;4.05;2.97;;;;;;;;;;5006984;28;20193;-45
2022/10/28 13:21:20;;;;;;;7.28;4.00;;;;;;;;;;5001343;28;20238;-45
2022/10/28 13:24:08;;;;;;;4.28;2.90;;;;;;;;;;4997802;28;20203;-46
2022/10/28 13:26:35;;;;;;;5.50;3.55;;;;;;;;;;5000709;28;20197;-46
2022/10/28 13:29:03;;;;;;;4.70;3.00;;;;;;;;;;5001956;28;20646;-45
2022/10/28 13:31:43;;;;;;;7.35;3.55;;;;;;;;;;5003813;28;20183;-48
2022/10/28 13:34:10;;;;;;;5.78;3.60;;;;;;;;;;4993588;28;20571;-46
2022/10/28 13:36:39;;;;;;;7.40;3.35;;;;;;;;;;5002240;28;20179;-46
2022/10/28 13:39:20;;;;;;;4.90;3.25;;;;;;;;;;4998754;28;20219;-47
2022/10/28 13:41:45;;;;;;;5.15;3.17;;;;;;;;;;5000287;28;20183;-45
2022/10/28 13:44:31;;;;;;;5.97;2.78;;;;;;;;;;5008157;28;20196;-48
2022/10/28 13:47:01;;;;;;;4.75;3.30;;;;;;;;;;5009356;28;20196;-61
2022/10/28 13:49:33;;;;;;;7.05;3.38;;;;;;;;;;5008504;28;20680;-46
2022/10/28 13:52:12;;;;;;;4.68;3.13;;;;;;;;;;5007498;28;20234;-47
2022/10/28 13:54:43;;;;;;;5.10;3.00;;;;;;;;;;5004049;28;20207;-48
2022/10/28 13:57:14;;;;;;;6.00;3.08;;;;;;;;;;5007854;28;20653;-47
2022/10/28 13:59:50;;;;;;;5.07;3.40;;;;;;;;;;5001783;28;20297;-47
2022/10/28 14:02:23;;;;;;;4.03;2.90;;;;;;;;;;5001928;28;20573;-46
2022/10/28 14:04:59;;;;;;;6.30;3.10;;;;;;;;;;5005834;28;20588;-46
2022/10/28 14:07:27;;;;;;;5.60;2.65;;;;;;;;;;5007209;28;20183;-47
2022/10/28 14:09:57;;;;;;;4.18;2.65;;;;;;;;;;5008936;28;20188;-46
2022/10/28 14:12:32;;;;;;;5.60;2.95;;;;;;;;;;5006559;28;20253;-58
2022/10/28 14:15:30;;;;;;;4.78;2.97;;;;;;;;;;5011113;28;20732;-57
2022/10/28 14:18:02;;;;;;;5.60;3.15;;;;;;;;;;5003472;28;20200;-58
2022/10/28 14:20:34;;;;;;;4.30;3.15;;;;;;;;;;5005732;28;20184;-58
2022/10/28 14:23:00;;;;;;;4.97;2.78;;;;;;;;;;5007786;28;20197;-58
2022/10/28 14:25:40;;;;;;;5.90;3.10;;;;;;;;;;5007933;28;20199;-58
2022/10/28 14:28:44;;;;;;;6.03;3.55;;;;;;;;;;5009493;28;20246;-57
2022/10/28 14:33:42;;;;;;;6.30;3.08;;;;;;;;;;5001068;28;20303;-58
2022/10/28 14:36:17;;;;;;;4.82;3.10;;;;;;;;;;5000491;28;20668;-58
2022/10/28 14:38:50;;;;;;;5.78;3.00;;;;;;;;;;4997600;28;20688;-58
2022/10/28 14:41:37;;;;;;;5.10;2.83;;;;;;;;;;5003340;28;20285;-58
2022/10/28 14:44:39;;;;;;;6.22;3.08;;;;;;;;;;5000674;28;21192;-58
2022/10/28 14:47:34;;;;;;;6.93;2.70;;;;;;;;;;5003378;28;20678;-50
2022/10/28 14:50:02;;;;;;;4.22;2.92;;;;;;;;;;4997348;28;20671;-53
2022/10/28 14:52:30;;;;;;;5.18;2.83;;;;;;;;;;5002522;28;20187;-49
2022/10/28 14:54:57;;;;;;;6.55;3.25;;;;;;;;;;5001675;28;20227;-50
2022/10/28 14:57:30;;;;;;;4.80;2.95;;;;;;;;;;5011092;28;20278;-51
2022/10/28 15:00:00;;;;;;;4.65;2.80;;;;;;;;;;5003638;28;20215;-50
2022/10/28 15:02:27;;;;;;;6.78;3.00;;;;;;;;;;5001273;28;20195;-49
2022/10/28 15:05:13;;;;;;;5.10;2.92;;;;;;;;;;5004208;28;20200;-48
2022/10/28 15:07:40;;;;;;;6.40;3.55;;;;;;;;;;5000456;28;20648;-49